createdAt,value
2023-03-16T00:01:26.913Z,59.31
2023-03-16T00:04:13.727Z,59.22
2023-03-16T00:07:00.558Z,59.03
2023-03-16T00:09:47.424Z,58.80
2023-03-16T00:12:34.732Z,59.17
2023-03-16T00:15:21.999Z,58.81
2023-03-16T00:18:08.949Z,58.70
2023-03-16T00:21:02.164Z,59.05
2023-03-16T00:23:49.030Z,58.66
2023-03-16T00:26:35.871Z,59.15
2023-03-16T00:29:22.792Z,58.94
2023-03-16T00:32:09.907Z,58.87
2023-03-16T00:34:57.003Z,58.77
2023-03-16T00:37:44.265Z,58.75
2023-03-16T00:40:31.208Z,59.06
2023-03-16T00:43:18.815Z,59.06
2023-03-16T00:46:06.920Z,59.04
2023-03-16T00:48:53.886Z,59.03
2023-03-16T00:51:45.970Z,59.38
2023-03-16T00:54:33.160Z,59.19
2023-03-16T00:57:21.581Z,59.23
2023-03-16T01:00:17.047Z,58.89
2023-03-16T01:03:03.930Z,58.94
2023-03-16T01:05:50.875Z,58.96
2023-03-16T01:08:38.734Z,59.03
2023-03-16T01:11:25.601Z,59.23
2023-03-16T01:14:12.458Z,59.18
2023-03-16T01:16:59.335Z,59.21
2023-03-16T01:19:46.766Z,59.17
2023-03-16T01:22:33.741Z,59.11
2023-03-16T01:25:21.262Z,59.28
2023-03-16T01:28:08.198Z,59.45
2023-03-16T01:31:03.832Z,59.11
2023-03-16T01:33:51.268Z,59.70
2023-03-16T01:36:38.102Z,59.37
2023-03-16T01:39:25.145Z,59.31
2023-03-16T01:42:12.145Z,59.30
2023-03-16T01:45:05.647Z,59.72
2023-03-16T01:47:52.488Z,59.25
2023-03-16T01:50:39.362Z,59.33
2023-03-16T01:53:26.846Z,59.37
2023-03-16T01:56:17.080Z,59.63
2023-03-16T01:59:09.251Z,59.72
2023-03-16T02:01:56.893Z,59.62
2023-03-16T02:04:58.641Z,59.75
2023-03-16T02:07:50.051Z,59.40
2023-03-16T02:10:37.194Z,59.87
2023-03-16T02:13:24.926Z,60.05
2023-03-16T02:16:12.176Z,59.89
2023-03-16T02:18:59.143Z,59.78
2023-03-16T02:22:03.157Z,59.80
2023-03-16T02:24:49.993Z,59.77
2023-03-16T02:28:02.326Z,59.87
2023-03-16T02:30:49.608Z,59.78
2023-03-16T02:33:36.671Z,60.15
2023-03-16T02:36:23.860Z,59.74
2023-03-16T02:39:10.740Z,59.77
2023-03-16T02:41:57.688Z,59.65
2023-03-16T02:44:49.082Z,60.03
2023-03-16T02:47:39.262Z,60.13
2023-03-16T02:50:26.253Z,60.10
2023-03-16T02:53:14.005Z,60.15
2023-03-16T02:56:03.013Z,60.27
2023-03-16T02:58:49.901Z,60.28
2023-03-16T03:01:36.775Z,60.18
2023-03-16T03:04:24.689Z,60.31
2023-03-16T03:07:14.294Z,59.93
2023-03-16T03:10:05.944Z,59.67
2023-03-16T03:12:52.807Z,60.27
2023-03-16T03:15:40.385Z,60.17
2023-03-16T03:18:27.401Z,60.26
2023-03-16T03:21:14.438Z,60.23
2023-03-16T03:24:01.322Z,60.06
2023-03-16T03:26:48.229Z,60.10
2023-03-16T03:29:35.103Z,60.28
2023-03-16T03:32:21.942Z,60.15
2023-03-16T03:35:09.085Z,60.42
2023-03-16T03:37:56.158Z,60.18
2023-03-16T03:40:43.027Z,60.26
2023-03-16T03:43:30.131Z,60.40
2023-03-16T03:46:17.081Z,60.55
2023-03-16T03:49:05.393Z,60.53
2023-03-16T03:51:52.198Z,60.21
2023-03-16T03:54:39.068Z,60.60
2023-03-16T03:57:25.955Z,60.21
2023-03-16T04:00:13.554Z,60.26
2023-03-16T04:03:00.564Z,60.55
2023-03-16T04:05:49.577Z,60.72
2023-03-16T04:08:36.613Z,60.73
2023-03-16T04:11:23.435Z,60.42
2023-03-16T04:14:10.327Z,60.79
2023-03-16T04:16:57.823Z,60.61
2023-03-16T04:19:44.703Z,60.70
2023-03-16T04:22:31.545Z,60.57
2023-03-16T04:25:18.415Z,60.60
2023-03-16T04:28:05.671Z,60.63
2023-03-16T04:30:54.620Z,60.94
2023-03-16T04:33:42.385Z,60.45
2023-03-16T04:36:29.242Z,60.86
2023-03-16T04:39:16.122Z,60.73
2023-03-16T04:42:03.005Z,60.79
2023-03-16T04:44:49.839Z,60.57
2023-03-16T04:47:37.758Z,60.98
2023-03-16T04:50:25.449Z,60.73
2023-03-16T04:53:12.342Z,60.63
2023-03-16T04:55:59.414Z,60.71
2023-03-16T04:58:47.596Z,60.72
2023-03-16T05:01:34.496Z,60.65
2023-03-16T05:04:22.062Z,60.90
2023-03-16T05:07:08.951Z,61.01
2023-03-16T05:09:55.780Z,60.86
2023-03-16T05:12:42.897Z,60.81
2023-03-16T05:15:29.726Z,60.80
2023-03-16T05:18:16.606Z,60.96
2023-03-16T05:21:03.555Z,60.65
2023-03-16T05:23:50.409Z,60.71
2023-03-16T05:26:37.241Z,60.72
2023-03-16T05:29:25.725Z,61.00
2023-03-16T05:32:13.477Z,60.83
2023-03-16T05:35:00.352Z,61.06
2023-03-16T05:37:47.206Z,60.88
2023-03-16T05:40:34.054Z,60.96
2023-03-16T05:43:21.845Z,60.77
2023-03-16T05:46:08.723Z,61.12
2023-03-16T05:48:55.634Z,61.10
2023-03-16T05:51:42.637Z,61.24
2023-03-16T05:54:29.552Z,61.04
2023-03-16T05:57:16.438Z,61.21
2023-03-16T06:00:15.712Z,61.04
2023-03-16T06:03:02.522Z,61.16
2023-03-16T06:05:49.596Z,61.17
2023-03-16T06:08:36.460Z,61.28
2023-03-16T06:11:23.286Z,61.22
2023-03-16T06:14:10.135Z,61.31
2023-03-16T06:16:56.983Z,61.38
2023-03-16T06:19:43.902Z,61.20
2023-03-16T06:22:30.800Z,61.15
2023-03-16T06:25:17.780Z,61.28
2023-03-16T06:28:04.751Z,61.36
2023-03-16T06:30:55.874Z,61.09
2023-03-16T06:33:42.726Z,60.46
2023-03-16T06:36:29.587Z,61.15
2023-03-16T06:39:16.432Z,61.01
2023-03-16T06:42:04.663Z,61.16
2023-03-16T06:44:52.823Z,61.10
2023-03-16T06:47:39.739Z,60.91
2023-03-16T06:50:27.464Z,61.04
2023-03-16T06:53:14.554Z,60.76
2023-03-16T06:56:01.391Z,60.66
2023-03-16T06:58:48.280Z,60.63
2023-03-16T07:01:35.189Z,60.65
2023-03-16T07:04:22.100Z,60.72
2023-03-16T07:07:09.665Z,60.88
2023-03-16T07:09:56.751Z,60.82
2023-03-16T07:12:44.200Z,60.71
2023-03-16T07:15:31.332Z,60.85
2023-03-16T07:18:21.991Z,60.80
2023-03-16T07:21:09.915Z,60.99
2023-03-16T07:23:58.157Z,61.02
2023-03-16T07:26:46.369Z,60.82
2023-03-16T07:29:34.330Z,60.92
2023-03-16T07:32:22.065Z,60.81
2023-03-16T07:35:11.528Z,60.85
2023-03-16T07:37:58.623Z,60.59
2023-03-16T07:40:45.502Z,61.02
2023-03-16T07:43:32.378Z,61.26
2023-03-16T07:46:19.250Z,60.99
2023-03-16T07:49:09.952Z,61.05
2023-03-16T07:51:56.841Z,60.84
2023-03-16T07:54:44.066Z,61.06
2023-03-16T07:57:35.544Z,60.74
2023-03-16T08:00:24.221Z,61.10
2023-03-16T08:03:15.460Z,60.94
2023-03-16T08:06:02.336Z,60.96
2023-03-16T08:08:49.258Z,60.95
2023-03-16T08:11:37.869Z,60.97
2023-03-16T08:14:26.488Z,61.10
2023-03-16T08:17:15.652Z,61.16
2023-03-16T08:20:08.205Z,60.94
2023-03-16T08:22:55.270Z,61.08
2023-03-16T08:25:42.091Z,61.20
2023-03-16T08:28:29.769Z,61.20
2023-03-16T08:31:16.783Z,61.14
2023-03-16T08:34:04.348Z,61.08
2023-03-16T08:36:51.206Z,61.33
2023-03-16T08:39:40.714Z,61.20
2023-03-16T08:42:28.942Z,61.50
2023-03-16T08:45:17.357Z,61.46
2023-03-16T08:48:05.056Z,61.44
2023-03-16T08:50:53.891Z,61.39
2023-03-16T08:53:40.772Z,61.22
2023-03-16T08:56:52.550Z,61.20
2023-03-16T08:59:39.721Z,61.01
2023-03-16T09:02:26.688Z,60.79
2023-03-16T09:05:15.923Z,60.66
2023-03-16T09:08:03.958Z,60.54
2023-03-16T09:10:51.354Z,60.40
2023-03-16T09:13:39.329Z,60.39
2023-03-16T09:16:26.370Z,60.84
2023-03-16T09:19:13.578Z,60.41
2023-03-16T09:22:00.450Z,60.68
2023-03-16T09:24:48.711Z,60.49
2023-03-16T09:27:36.741Z,60.53
2023-03-16T09:30:23.921Z,60.35
2023-03-16T09:33:11.156Z,60.40
2023-03-16T09:35:58.690Z,60.21
2023-03-16T09:38:49.001Z,60.14
2023-03-16T09:41:48.989Z,60.34
2023-03-16T09:44:51.607Z,60.57
2023-03-16T09:47:38.690Z,60.15
2023-03-16T09:50:38.176Z,60.76
2023-03-16T09:53:38.004Z,60.51
2023-03-16T09:56:34.001Z,60.44
2023-03-16T09:59:22.608Z,60.50
2023-03-16T10:02:46.558Z,60.75
2023-03-16T10:05:34.129Z,60.31
2023-03-16T10:08:33.274Z,60.67
2023-03-16T10:11:27.769Z,60.76
2023-03-16T10:14:22.767Z,60.50
2023-03-16T10:17:18.935Z,60.18
2023-03-16T10:20:13.048Z,60.47
2023-03-16T10:23:02.137Z,60.31
2023-03-16T10:25:54.184Z,60.28
2023-03-16T10:28:43.041Z,60.70
2023-03-16T10:31:30.353Z,60.43
2023-03-16T10:34:17.329Z,60.06
2023-03-16T10:37:05.436Z,60.62
2023-03-16T10:39:52.363Z,60.19
2023-03-16T10:42:39.803Z,60.05
2023-03-16T10:45:35.130Z,60.47
2023-03-16T10:48:22.156Z,60.58
2023-03-16T10:51:14.841Z,60.39
2023-03-16T10:54:15.837Z,59.98
2023-03-16T10:57:16.745Z,60.30
2023-03-16T11:00:22.205Z,59.83
2023-03-16T11:03:39.173Z,59.84
2023-03-16T11:06:30.746Z,60.09
2023-03-16T11:09:24.042Z,59.83
2023-03-16T11:12:31.790Z,60.11
2023-03-16T11:15:25.810Z,59.99
2023-03-16T11:18:24.983Z,60.17
2023-03-16T11:21:32.152Z,59.96
2023-03-16T11:24:25.051Z,60.28
2023-03-16T11:27:25.055Z,60.36
2023-03-16T11:30:24.070Z,59.80
2023-03-16T11:33:14.144Z,59.92
2023-03-16T11:36:37.771Z,59.71
2023-03-16T11:39:43.866Z,59.58
2023-03-16T11:42:36.321Z,59.93
2023-03-16T11:45:43.236Z,59.61
2023-03-16T11:49:08.449Z,59.72
2023-03-16T11:52:29.508Z,59.65
2023-03-16T11:55:19.678Z,59.67
2023-03-16T11:58:42.964Z,59.84
2023-03-16T12:01:43.062Z,59.46
2023-03-16T12:05:07.701Z,59.61
2023-03-16T12:08:22.083Z,59.61
2023-03-16T12:11:14.576Z,59.49
2023-03-16T12:14:20.008Z,59.32
2023-03-16T12:17:14.724Z,58.00
2023-03-16T12:20:05.876Z,58.03
2023-03-16T12:22:59.340Z,56.88
2023-03-16T12:25:47.629Z,56.38
2023-03-16T12:28:35.049Z,56.21
2023-03-16T12:31:39.990Z,55.93
2023-03-16T12:34:40.667Z,55.24
2023-03-16T12:37:48.610Z,54.90
2023-03-16T12:41:18.003Z,54.24
2023-03-16T12:44:15.960Z,53.45
2023-03-16T12:47:24.056Z,53.00
2023-03-16T12:50:13.329Z,52.53
2023-03-16T12:53:00.269Z,51.65
2023-03-16T12:55:47.122Z,51.73
2023-03-16T12:58:34.480Z,52.17
2023-03-16T13:01:28.419Z,51.97
2023-03-16T13:04:19.770Z,51.25
2023-03-16T13:07:17.638Z,51.53
2023-03-16T13:10:10.185Z,51.58
2023-03-16T13:13:08.030Z,51.83
2023-03-16T13:16:09.416Z,50.90
2023-03-16T13:18:57.251Z,51.45
2023-03-16T13:21:44.866Z,51.48
2023-03-16T13:24:39.986Z,51.77
2023-03-16T13:27:30.116Z,51.61
2023-03-16T13:30:18.422Z,51.40
2023-03-16T13:33:26.241Z,50.75
2023-03-16T13:36:13.942Z,51.30
2023-03-16T13:39:11.940Z,51.33
2023-03-16T13:42:14.617Z,51.45
2023-03-16T13:45:13.218Z,51.14
2023-03-16T13:48:03.548Z,51.50
2023-03-16T13:50:54.807Z,52.65
2023-03-16T13:53:42.911Z,52.21
2023-03-16T13:56:32.646Z,51.85
2023-03-16T13:59:21.591Z,51.96
2023-03-16T14:02:17.963Z,52.05
2023-03-16T14:05:13.171Z,51.75
2023-03-16T14:08:04.980Z,52.18
2023-03-16T14:10:54.506Z,51.96
2023-03-16T14:13:41.976Z,52.20
2023-03-16T14:16:31.855Z,52.53
2023-03-16T14:19:24.372Z,52.03
2023-03-16T14:22:20.440Z,52.67
2023-03-16T14:25:07.734Z,52.55
2023-03-16T14:28:02.873Z,52.22
2023-03-16T14:30:53.975Z,52.67
2023-03-16T14:33:42.814Z,52.55
2023-03-16T14:36:36.098Z,52.37
2023-03-16T14:39:27.203Z,52.29
2023-03-16T14:42:34.778Z,52.44
2023-03-16T14:45:22.748Z,52.30
2023-03-16T14:48:20.771Z,52.13
2023-03-16T14:51:11.921Z,52.01
2023-03-16T14:53:58.772Z,52.12
2023-03-16T14:56:50.981Z,51.97
2023-03-16T14:59:38.138Z,51.93
2023-03-16T15:02:32.939Z,52.03
2023-03-16T15:05:29.467Z,52.18
2023-03-16T15:08:20.008Z,52.28
2023-03-16T15:11:07.076Z,51.57
2023-03-16T15:14:03.858Z,52.29
2023-03-16T15:16:52.367Z,52.21
2023-03-16T15:19:39.638Z,51.72
2023-03-16T15:22:33.104Z,51.71
2023-03-16T15:25:23.302Z,51.48
2023-03-16T15:28:16.065Z,51.58
2023-03-16T15:31:06.183Z,51.20
2023-03-16T15:33:54.475Z,51.21
2023-03-16T15:36:42.324Z,51.45
2023-03-16T15:39:29.244Z,51.17
2023-03-16T15:42:19.603Z,50.95
2023-03-16T15:45:11.528Z,50.30
2023-03-16T15:47:59.188Z,50.36
2023-03-16T15:50:55.044Z,50.74
2023-03-16T15:53:45.973Z,50.68
2023-03-16T15:56:44.190Z,50.31
2023-03-16T15:59:50.971Z,50.42
2023-03-16T16:02:39.555Z,50.71
2023-03-16T16:05:27.340Z,50.82
2023-03-16T16:08:14.379Z,51.02
2023-03-16T16:11:01.509Z,50.64
2023-03-16T16:13:48.504Z,50.83
2023-03-16T16:16:37.164Z,50.71
2023-03-16T16:19:24.100Z,50.53
2023-03-16T16:22:13.008Z,50.88
2023-03-16T16:24:59.928Z,50.25
2023-03-16T16:27:47.077Z,50.21
2023-03-16T16:30:33.978Z,50.31
2023-03-16T16:33:33.177Z,50.42
2023-03-16T16:36:22.952Z,50.47
2023-03-16T16:39:10.031Z,50.57
2023-03-16T16:41:57.244Z,50.44
2023-03-16T16:44:44.273Z,50.24
2023-03-16T16:47:31.345Z,50.41
2023-03-16T16:50:26.274Z,50.16
2023-03-16T16:53:20.869Z,50.18
2023-03-16T16:56:13.579Z,50.39
2023-03-16T16:59:04.574Z,50.36
2023-03-16T17:01:53.897Z,50.57
2023-03-16T17:04:41.214Z,50.94
2023-03-16T17:07:28.075Z,50.49
2023-03-16T17:10:24.057Z,51.16
2023-03-16T17:13:28.628Z,47.59
2023-03-16T17:16:17.601Z,49.24
2023-03-16T17:19:12.804Z,50.25
2023-03-16T17:22:02.849Z,50.48
2023-03-16T17:24:52.160Z,50.89
2023-03-16T17:27:39.282Z,50.79
2023-03-16T17:30:30.816Z,51.35
2023-03-16T17:33:25.479Z,51.69
2023-03-16T17:36:18.667Z,52.19
2023-03-16T17:39:14.291Z,51.95
2023-03-16T17:42:18.449Z,52.49
2023-03-16T17:45:11.557Z,52.13
2023-03-16T17:47:58.626Z,52.72
2023-03-16T17:50:46.182Z,52.48
2023-03-16T17:53:33.605Z,52.67
2023-03-16T17:56:21.935Z,52.99
2023-03-16T17:59:17.523Z,52.65
2023-03-16T18:02:34.692Z,52.83
2023-03-16T18:05:27.361Z,52.73
2023-03-16T18:08:16.096Z,53.00
2023-03-16T18:11:05.053Z,53.12
2023-03-16T18:13:52.061Z,53.31
2023-03-16T18:16:39.252Z,52.94
2023-03-16T18:19:32.349Z,53.07
2023-03-16T18:22:22.028Z,53.56
2023-03-16T18:25:27.601Z,52.90
2023-03-16T18:28:15.030Z,53.32
2023-03-16T18:31:05.078Z,53.32
2023-03-16T18:33:57.066Z,53.32
2023-03-16T18:36:57.303Z,53.64
2023-03-16T18:39:44.225Z,53.34
2023-03-16T18:42:31.832Z,53.52
2023-03-16T18:45:18.844Z,53.63
2023-03-16T18:48:05.953Z,53.11
2023-03-16T18:50:52.879Z,53.20
2023-03-16T18:53:39.750Z,53.44
2023-03-16T18:56:28.468Z,53.62
2023-03-16T18:59:15.533Z,53.58
2023-03-16T19:02:02.417Z,53.26
2023-03-16T19:04:49.381Z,53.27
2023-03-16T19:07:38.198Z,53.71
2023-03-16T19:10:33.282Z,53.66
2023-03-16T19:13:21.685Z,53.51
2023-03-16T19:16:16.513Z,53.31
2023-03-16T19:19:03.568Z,53.53
2023-03-16T19:21:52.795Z,53.43
2023-03-16T19:24:49.370Z,53.67
2023-03-16T19:27:38.094Z,53.52
2023-03-16T19:30:30.195Z,53.55
2023-03-16T19:33:22.722Z,53.21
2023-03-16T19:36:16.195Z,53.70
2023-03-16T19:39:04.137Z,53.37
2023-03-16T19:41:56.492Z,53.76
2023-03-16T19:44:44.811Z,53.32
2023-03-16T19:47:33.785Z,53.57
2023-03-16T19:50:23.286Z,53.38
2023-03-16T19:53:18.395Z,53.31
2023-03-16T19:56:06.011Z,53.57
2023-03-16T19:58:53.666Z,53.63
2023-03-16T20:01:40.765Z,53.61
2023-03-16T20:04:28.234Z,53.62
2023-03-16T20:07:16.678Z,53.45
2023-03-16T20:10:06.352Z,53.55
2023-03-16T20:12:56.078Z,53.69
2023-03-16T20:15:43.312Z,53.74
2023-03-16T20:18:30.214Z,53.57
2023-03-16T20:21:17.104Z,53.47
2023-03-16T20:24:04.288Z,53.50
2023-03-16T20:26:53.467Z,53.38
2023-03-16T20:29:40.244Z,53.56
2023-03-16T20:32:31.483Z,53.48
2023-03-16T20:35:24.541Z,53.25
2023-03-16T20:38:12.909Z,53.67
2023-03-16T20:41:00.750Z,53.44
2023-03-16T20:43:47.604Z,53.31
2023-03-16T20:46:34.544Z,53.50
2023-03-16T20:49:21.426Z,53.40
2023-03-16T20:52:22.338Z,53.56
2023-03-16T20:55:13.376Z,53.48
2023-03-16T20:58:01.245Z,53.54
2023-03-16T21:00:50.498Z,53.37
2023-03-16T21:03:39.365Z,53.15
2023-03-16T21:06:28.612Z,53.38
2023-03-16T21:09:15.623Z,53.32
2023-03-16T21:12:02.561Z,53.20
2023-03-16T21:14:49.527Z,53.40
2023-03-16T21:17:38.227Z,53.35
2023-03-16T21:20:27.811Z,53.40
2023-03-16T21:23:17.436Z,53.25
2023-03-16T21:26:04.353Z,53.24
2023-03-16T21:28:58.113Z,53.41
2023-03-16T21:31:44.998Z,53.28
2023-03-16T21:34:34.331Z,53.29
2023-03-16T21:37:24.157Z,53.33
2023-03-16T21:40:22.408Z,53.23
2023-03-16T21:43:11.965Z,53.49
2023-03-16T21:45:59.610Z,53.41
2023-03-16T21:48:51.906Z,53.27
2023-03-16T21:51:38.834Z,53.21
2023-03-16T21:54:25.712Z,53.33
2023-03-16T21:57:14.111Z,53.38
2023-03-16T22:00:01.192Z,53.27
2023-03-16T22:02:50.012Z,53.24
2023-03-16T22:05:38.693Z,53.28
2023-03-16T22:08:27.105Z,53.27
2023-03-16T22:11:16.969Z,53.21
2023-03-16T22:14:04.635Z,53.24
2023-03-16T22:16:51.723Z,53.35
2023-03-16T22:19:38.566Z,53.34
2023-03-16T22:22:25.651Z,53.20
2023-03-16T22:25:18.748Z,53.32
2023-03-16T22:28:11.429Z,53.32
2023-03-16T22:30:59.477Z,53.51
2023-03-16T22:33:47.807Z,53.63
2023-03-16T22:36:34.855Z,53.38
2023-03-16T22:39:21.826Z,53.39
2023-03-16T22:42:38.413Z,53.61
2023-03-16T22:45:27.596Z,53.53
2023-03-16T22:48:18.774Z,53.56
2023-03-16T22:51:06.180Z,53.33
2023-03-16T22:53:56.148Z,53.63
2023-03-16T22:56:44.663Z,53.36
2023-03-16T22:59:32.155Z,53.65
2023-03-16T23:02:22.228Z,53.37
2023-03-16T23:05:24.640Z,53.75
2023-03-16T23:08:17.493Z,53.56
2023-03-16T23:11:05.345Z,53.47
2023-03-16T23:13:54.232Z,53.54
2023-03-16T23:16:41.766Z,53.50
2023-03-16T23:19:31.868Z,53.68
2023-03-16T23:22:18.832Z,53.76
2023-03-16T23:25:06.169Z,53.65
2023-03-16T23:27:53.185Z,53.53
2023-03-16T23:30:40.142Z,53.41
2023-03-16T23:33:27.091Z,53.37
2023-03-16T23:36:19.903Z,53.52
2023-03-16T23:39:07.385Z,53.50
2023-03-16T23:41:54.419Z,53.25
2023-03-16T23:44:41.733Z,53.29
2023-03-16T23:47:29.087Z,53.14
2023-03-16T23:50:20.767Z,53.35
2023-03-16T23:53:13.039Z,53.46
2023-03-16T23:55:59.948Z,53.60
2023-03-16T23:58:46.767Z,53.32
